createdAt,value
2018-05-04T00:02:07.647Z,8.30
2018-05-04T00:04:34.862Z,8.27
2018-05-04T00:07:02.062Z,8.70
2018-05-04T00:09:29.257Z,8.03
2018-05-04T00:11:56.448Z,8.37
2018-05-04T00:14:23.655Z,7.87
2018-05-04T00:16:50.871Z,8.57
2018-05-04T00:19:18.083Z,7.07
2018-05-04T00:21:45.278Z,7.70
2018-05-04T00:24:12.470Z,7.30
2018-05-04T00:26:39.682Z,7.93
2018-05-04T00:29:06.854Z,6.77
2018-05-04T00:31:34.067Z,6.70
2018-05-04T00:34:01.258Z,7.40
2018-05-04T00:36:28.438Z,6.70
2018-05-04T00:38:55.633Z,6.97
2018-05-04T00:41:22.830Z,6.90
2018-05-04T00:43:50.030Z,6.60
2018-05-04T00:46:17.222Z,6.40
2018-05-04T00:48:44.426Z,6.60
2018-05-04T00:51:11.619Z,6.60
2018-05-04T00:53:44.525Z,6.00
2018-05-04T00:56:11.730Z,7.07
2018-05-04T00:58:38.921Z,6.50
2018-05-04T01:01:06.104Z,7.73
2018-05-04T01:03:33.300Z,6.73
2018-05-04T01:06:00.485Z,6.50
2018-05-04T01:08:27.697Z,8.00
2018-05-04T01:10:54.882Z,6.27
2018-05-04T01:13:22.077Z,6.67
2018-05-04T01:15:49.479Z,6.53
2018-05-04T01:18:16.655Z,6.50
2018-05-04T01:20:43.879Z,8.17
2018-05-04T01:23:11.089Z,6.70
2018-05-04T01:25:38.537Z,6.50
2018-05-04T01:28:05.727Z,7.20
2018-05-04T01:30:34.085Z,7.30
2018-05-04T01:33:01.278Z,6.93
2018-05-04T01:35:28.480Z,6.30
2018-05-04T01:37:55.676Z,7.00
2018-05-04T01:40:22.861Z,6.40
2018-05-04T01:42:50.050Z,6.23
2018-05-04T01:45:17.241Z,6.83
2018-05-04T01:47:44.494Z,6.90
2018-05-04T01:50:11.682Z,5.40
2018-05-04T01:52:38.964Z,6.33
2018-05-04T01:55:06.162Z,6.47
2018-05-04T01:57:33.369Z,6.13
2018-05-04T02:00:00.576Z,6.63
2018-05-04T02:02:27.776Z,6.10
2018-05-04T02:04:54.742Z,6.87
2018-05-04T02:07:21.930Z,6.50
2018-05-04T02:09:48.912Z,6.90
2018-05-04T02:12:16.109Z,6.97
2018-05-04T02:14:43.301Z,5.83
2018-05-04T02:17:10.505Z,6.40
2018-05-04T02:19:37.698Z,6.93
2018-05-04T02:22:04.887Z,6.57
2018-05-04T02:24:32.072Z,6.20
2018-05-04T02:26:59.267Z,6.90
2018-05-04T02:29:26.441Z,7.50
2018-05-04T02:31:53.657Z,6.97
2018-05-04T02:34:20.847Z,6.20
2018-05-04T02:36:48.037Z,7.00
2018-05-04T02:39:15.238Z,6.10
2018-05-04T02:41:42.710Z,6.70
2018-05-04T02:44:09.911Z,6.50
2018-05-04T02:46:37.103Z,6.33
2018-05-04T02:49:04.314Z,7.40
2018-05-04T02:51:31.489Z,6.53
2018-05-04T02:53:58.867Z,6.90
2018-05-04T02:56:26.045Z,5.87
2018-05-04T02:58:53.262Z,6.87
2018-05-04T03:01:20.469Z,7.13
2018-05-04T03:03:47.667Z,6.30
2018-05-04T03:06:14.857Z,6.90
2018-05-04T03:08:42.051Z,7.60
2018-05-04T03:11:09.246Z,6.90
2018-05-04T03:13:36.434Z,7.13
2018-05-04T03:16:03.626Z,6.83
2018-05-04T03:18:30.994Z,8.47
2018-05-04T03:20:58.200Z,7.37
2018-05-04T03:23:25.576Z,6.97
2018-05-04T03:25:52.762Z,6.67
2018-05-04T03:28:19.971Z,5.97
2018-05-04T03:30:47.160Z,6.07
2018-05-04T03:33:14.538Z,6.90
2018-05-04T03:35:41.711Z,6.40
2018-05-04T03:38:08.902Z,7.07
2018-05-04T03:40:36.098Z,7.30
2018-05-04T03:43:03.278Z,7.50
2018-05-04T03:45:30.474Z,7.10
2018-05-04T03:47:57.666Z,7.57
2018-05-04T03:50:24.861Z,7.50
2018-05-04T03:52:52.054Z,7.50
2018-05-04T03:55:19.242Z,7.60
2018-05-04T03:57:52.070Z,8.00
2018-05-04T04:00:24.949Z,7.03
2018-05-04T04:02:57.833Z,8.10
2018-05-04T04:05:25.016Z,7.30
2018-05-04T04:07:52.202Z,7.63
2018-05-04T04:10:19.174Z,7.00
2018-05-04T04:12:46.371Z,7.70
2018-05-04T04:15:13.566Z,7.13
2018-05-04T04:17:40.759Z,7.77
2018-05-04T04:20:07.956Z,7.47
2018-05-04T04:22:35.141Z,7.87
2018-05-04T04:25:02.359Z,8.30
2018-05-04T04:27:29.543Z,9.50
2018-05-04T04:29:56.729Z,9.80
2018-05-04T04:32:24.131Z,9.17
2018-05-04T04:34:51.327Z,8.30
2018-05-04T04:37:18.537Z,9.10
2018-05-04T04:39:45.733Z,8.83
2018-05-04T04:42:12.942Z,9.97
2018-05-04T04:44:40.141Z,9.57
2018-05-04T04:47:07.343Z,7.90
2018-05-04T04:49:34.554Z,9.40
2018-05-04T04:52:01.751Z,9.70
2018-05-04T04:54:28.972Z,9.13
2018-05-04T04:56:56.159Z,9.17
2018-05-04T04:59:23.378Z,9.10
2018-05-04T05:01:50.665Z,9.43
2018-05-04T05:04:17.967Z,9.37
2018-05-04T05:06:45.164Z,9.10
2018-05-04T05:09:12.363Z,8.53
2018-05-04T05:11:39.558Z,9.33
2018-05-04T05:14:06.764Z,10.40
2018-05-04T05:16:33.972Z,9.57
2018-05-04T05:19:01.166Z,10.03
2018-05-04T05:21:28.380Z,9.90
2018-05-04T05:23:55.558Z,9.70
2018-05-04T05:26:22.775Z,11.60
2018-05-04T05:28:49.967Z,10.73
2018-05-04T05:31:17.158Z,11.13
2018-05-04T05:33:44.367Z,10.10
2018-05-04T05:36:11.554Z,9.80
2018-05-04T05:38:38.806Z,10.60
2018-05-04T05:41:06.019Z,11.50
2018-05-04T05:43:33.234Z,10.50
2018-05-04T05:46:00.435Z,10.63
2018-05-04T05:48:27.422Z,11.33
2018-05-04T05:50:54.943Z,11.55
2018-05-04T05:53:22.477Z,9.63
2018-05-04T05:55:49.960Z,9.52
2018-05-04T05:58:17.442Z,9.18
2018-05-04T06:00:44.945Z,9.55
2018-05-04T06:03:12.461Z,10.77
2018-05-04T06:05:39.969Z,11.07
2018-05-04T06:08:07.470Z,11.10
2018-05-04T06:10:34.978Z,12.05
2018-05-04T06:13:02.241Z,10.98
2018-05-04T06:15:29.738Z,11.25
2018-05-04T06:17:57.237Z,10.23
2018-05-04T06:20:24.729Z,9.57
2018-05-04T06:22:51.925Z,9.90
2018-05-04T06:25:19.185Z,10.00
2018-05-04T06:27:46.392Z,10.30
2018-05-04T06:30:13.584Z,9.80
2018-05-04T06:32:41.082Z,9.98
2018-05-04T06:35:08.294Z,10.90
2018-05-04T06:37:35.487Z,9.47
2018-05-04T06:40:02.675Z,9.80
2018-05-04T06:42:29.876Z,9.67
2018-05-04T06:44:57.149Z,10.13
2018-05-04T06:47:24.392Z,9.10
2018-05-04T06:49:51.590Z,10.23
2018-05-04T06:52:18.546Z,11.60
2018-05-04T06:54:45.758Z,11.43
2018-05-04T06:57:12.958Z,10.30
2018-05-04T06:59:40.147Z,9.20
2018-05-04T07:02:07.355Z,10.97
2018-05-04T07:04:34.570Z,10.30
2018-05-04T07:07:01.763Z,10.37
2018-05-04T07:09:28.975Z,9.30
2018-05-04T07:11:56.236Z,11.83
2018-05-04T07:14:23.606Z,8.97
2018-05-04T07:16:50.805Z,10.10
2018-05-04T07:19:18.015Z,10.17
2018-05-04T07:21:45.220Z,11.83
2018-05-04T07:24:12.422Z,10.07
2018-05-04T07:26:39.442Z,9.90
2018-05-04T07:29:06.649Z,11.00
2018-05-04T07:31:33.856Z,10.10
2018-05-04T07:34:01.130Z,10.10
2018-05-04T07:36:28.324Z,9.97
2018-05-04T07:38:55.544Z,9.90
2018-05-04T07:41:22.733Z,9.40
2018-05-04T07:43:49.951Z,10.40
2018-05-04T07:46:17.154Z,10.17
2018-05-04T07:48:44.381Z,9.57
2018-05-04T07:51:12.069Z,10.60
2018-05-04T07:53:39.282Z,10.53
2018-05-04T07:56:06.495Z,10.50
2018-05-04T07:58:33.709Z,10.10
2018-05-04T08:01:00.914Z,10.67
2018-05-04T08:03:28.130Z,10.67
2018-05-04T08:05:55.334Z,9.50
2018-05-04T08:08:22.821Z,9.93
2018-05-04T08:10:50.336Z,10.05
2018-05-04T08:13:17.729Z,10.77
2018-05-04T08:15:44.933Z,10.47
2018-05-04T08:18:16.915Z,10.57
2018-05-04T08:20:44.126Z,10.70
2018-05-04T08:23:11.326Z,10.27
2018-05-04T08:25:38.511Z,10.30
2018-05-04T08:28:05.507Z,11.80
2018-05-04T08:30:33.006Z,10.68
2018-05-04T08:33:00.204Z,10.07
2018-05-04T08:35:27.198Z,10.97
2018-05-04T08:37:54.589Z,11.40
2018-05-04T08:40:21.835Z,11.63
2018-05-04T08:42:49.028Z,10.97
2018-05-04T08:45:16.239Z,11.70
2018-05-04T08:47:43.436Z,12.60
2018-05-04T08:50:10.825Z,11.47
2018-05-04T08:52:38.046Z,11.50
2018-05-04T08:55:05.241Z,13.17
2018-05-04T08:57:32.479Z,12.00
2018-05-04T08:59:59.668Z,12.43
2018-05-04T09:02:26.710Z,12.77
2018-05-04T09:04:53.967Z,12.63
2018-05-04T09:07:21.182Z,14.23
2018-05-04T09:09:48.401Z,13.50
2018-05-04T09:12:15.615Z,12.77
2018-05-04T09:14:42.807Z,14.63
2018-05-04T09:17:10.018Z,14.60
2018-05-04T09:19:37.233Z,14.20
2018-05-04T09:22:04.442Z,13.40
2018-05-04T09:24:31.671Z,15.40
2018-05-04T09:26:58.873Z,13.63
2018-05-04T09:29:26.079Z,14.90
2018-05-04T09:31:53.596Z,16.50
2018-05-04T09:34:20.809Z,15.93
2018-05-04T09:36:48.014Z,15.70
2018-05-04T09:39:15.216Z,16.77
2018-05-04T09:41:42.443Z,16.13
2018-05-04T09:44:09.646Z,14.80
2018-05-04T09:46:36.862Z,15.83
2018-05-04T09:49:04.157Z,16.33
2018-05-04T09:51:31.483Z,15.60
2018-05-04T09:53:58.772Z,16.67
2018-05-04T09:56:25.989Z,17.00
2018-05-04T09:58:53.232Z,17.03
2018-05-04T10:01:20.454Z,17.33
2018-05-04T10:03:47.673Z,17.00
2018-05-04T10:06:14.868Z,16.67
2018-05-04T10:08:42.070Z,16.83
2018-05-04T10:11:09.275Z,16.87
2018-05-04T10:13:36.478Z,18.20
2018-05-04T10:16:03.776Z,17.17
2018-05-04T10:18:31.255Z,15.70
2018-05-04T10:20:58.497Z,17.67
2018-05-04T10:23:25.702Z,17.80
2018-05-04T10:25:52.905Z,16.90
2018-05-04T10:28:20.115Z,18.77
2018-05-04T10:30:47.309Z,18.03
2018-05-04T10:33:14.560Z,16.57
2018-05-04T10:35:41.802Z,16.40
2018-05-04T10:40:42.813Z,16.27
2018-05-04T10:43:10.024Z,17.53
2018-05-04T10:45:37.228Z,18.10
2018-05-04T10:48:04.450Z,18.70
2018-05-04T10:50:31.653Z,17.67
2018-05-04T10:52:59.031Z,18.00
2018-05-04T10:55:26.223Z,17.53
2018-05-04T10:57:53.443Z,17.40
2018-05-04T11:00:20.668Z,17.07
2018-05-04T11:02:47.923Z,17.80
2018-05-04T11:05:15.275Z,15.13
2018-05-04T11:07:42.527Z,17.53
2018-05-04T11:10:09.718Z,17.20
2018-05-04T11:12:36.727Z,16.70
2018-05-04T11:15:03.972Z,17.97
2018-05-04T11:17:31.178Z,17.27
2018-05-04T11:19:58.391Z,16.33
2018-05-04T11:22:25.610Z,17.00
2018-05-04T11:24:52.834Z,17.13
2018-05-04T11:27:20.034Z,16.50
2018-05-04T11:29:47.252Z,16.50
2018-05-04T11:32:14.466Z,16.60
2018-05-04T11:34:41.697Z,16.70
2018-05-04T11:37:08.906Z,16.73
2018-05-04T11:39:36.122Z,15.80
2018-05-04T11:42:03.085Z,16.30
2018-05-04T11:44:30.294Z,14.63
2018-05-04T11:46:57.561Z,15.90
2018-05-04T11:49:24.781Z,14.17
2018-05-04T11:51:52.026Z,14.07
2018-05-04T11:54:19.311Z,14.10
2018-05-04T11:56:46.501Z,15.20
2018-05-04T11:59:13.706Z,14.10
2018-05-04T12:01:41.679Z,14.70
2018-05-04T12:04:08.903Z,14.80
2018-05-04T12:06:36.105Z,15.00
2018-05-04T12:09:03.081Z,14.80
2018-05-04T12:11:30.283Z,15.00
2018-05-04T12:13:57.516Z,15.20
2018-05-04T12:16:24.801Z,14.97
2018-05-04T12:18:52.015Z,14.77
2018-05-04T12:21:19.232Z,14.40
2018-05-04T12:23:46.424Z,15.57
2018-05-04T12:26:13.626Z,16.97
2018-05-04T12:28:40.863Z,16.10
2018-05-04T12:31:08.058Z,16.07
2018-05-04T12:33:35.289Z,15.40
2018-05-04T12:36:02.532Z,15.87
2018-05-04T12:38:29.777Z,15.30
2018-05-04T12:40:57.134Z,16.83
2018-05-04T12:43:24.351Z,17.57
2018-05-04T12:45:51.618Z,17.43
2018-05-04T12:48:18.995Z,18.13
2018-05-04T12:50:46.193Z,17.60
2018-05-04T12:53:13.406Z,17.67
2018-05-04T12:55:40.624Z,18.20
2018-05-04T12:58:07.823Z,18.83
2018-05-04T13:00:34.801Z,18.90
2018-05-04T13:03:01.997Z,18.53
2018-05-04T13:05:29.212Z,18.70
2018-05-04T13:07:56.418Z,19.00
2018-05-04T13:10:23.622Z,19.30
2018-05-04T13:12:50.816Z,18.33
2018-05-04T13:15:18.030Z,18.23
2018-05-04T13:17:45.243Z,18.00
2018-05-04T13:20:12.440Z,17.30
2018-05-04T13:22:39.647Z,18.30
2018-05-04T13:25:06.865Z,16.33
2018-05-04T13:27:34.095Z,17.20
2018-05-04T13:30:01.303Z,15.80
2018-05-04T13:32:28.520Z,16.53
2018-05-04T13:34:55.709Z,16.73
2018-05-04T13:37:22.933Z,16.43
2018-05-04T13:39:50.150Z,16.30
2018-05-04T13:42:17.352Z,16.07
2018-05-04T13:44:44.667Z,14.80
2018-05-04T13:47:11.953Z,16.40
2018-05-04T13:49:39.179Z,14.13
2018-05-04T13:52:06.394Z,16.77
2018-05-04T13:54:33.594Z,15.97
2018-05-04T13:57:00.803Z,16.10
2018-05-04T13:59:28.043Z,16.10
2018-05-04T14:01:55.013Z,16.33
2018-05-04T14:04:22.225Z,16.30
2018-05-04T14:06:49.238Z,14.63
2018-05-04T14:09:16.663Z,17.47
2018-05-04T14:11:43.851Z,15.73
2018-05-04T14:14:11.094Z,17.87
2018-05-04T14:16:38.286Z,16.13
2018-05-04T14:19:05.489Z,16.23
2018-05-04T14:21:32.706Z,16.67
2018-05-04T14:23:59.914Z,18.93
2018-05-04T14:26:27.133Z,17.30
2018-05-04T14:28:54.365Z,16.50
2018-05-04T14:31:21.569Z,18.13
2018-05-04T14:33:48.779Z,16.67
2018-05-04T14:36:15.999Z,18.23
2018-05-04T14:38:43.538Z,16.40
2018-05-04T14:41:10.766Z,17.07
2018-05-04T14:43:37.966Z,16.60
2018-05-04T14:46:05.179Z,16.40
2018-05-04T14:48:32.365Z,15.77
2018-05-04T14:50:59.611Z,17.17
2018-05-04T14:53:26.818Z,17.40
2018-05-04T14:55:53.819Z,16.13
2018-05-04T14:58:21.033Z,16.73
2018-05-04T15:00:48.232Z,16.03
2018-05-04T15:03:15.474Z,17.40
2018-05-04T15:05:42.715Z,17.53
2018-05-04T15:08:09.949Z,17.27
2018-05-04T15:10:37.149Z,15.90
2018-05-04T15:13:04.326Z,17.77
2018-05-04T15:15:31.523Z,16.23
2018-05-04T15:17:58.820Z,16.77
2018-05-04T15:20:26.179Z,18.07
2018-05-04T15:22:53.369Z,17.90
2018-05-04T15:25:20.593Z,17.17
2018-05-04T15:27:47.787Z,18.47
2018-05-04T15:30:15.052Z,17.30
2018-05-04T15:32:42.284Z,16.90
2018-05-04T15:35:09.477Z,16.37
2018-05-04T15:37:36.699Z,19.73
2018-05-04T15:40:03.920Z,18.07
2018-05-04T15:42:31.131Z,15.93
2018-05-04T15:44:58.338Z,17.50
2018-05-04T15:47:25.545Z,16.00
2018-05-04T15:49:52.635Z,16.97
2018-05-04T15:52:19.838Z,15.80
2018-05-04T15:54:47.126Z,16.80
2018-05-04T15:57:14.501Z,16.60
2018-05-04T15:59:41.815Z,14.80
2018-05-04T16:02:09.015Z,15.40
2018-05-04T16:04:36.244Z,14.10
2018-05-04T16:07:03.225Z,14.63
2018-05-04T16:09:30.435Z,13.97
2018-05-04T16:11:57.657Z,14.17
2018-05-04T16:14:24.878Z,14.87
2018-05-04T16:16:52.137Z,13.60
2018-05-04T16:19:19.349Z,13.00
2018-05-04T16:21:46.566Z,14.10
2018-05-04T16:24:13.799Z,13.80
2018-05-04T16:26:40.999Z,13.30
2018-05-04T16:29:08.202Z,13.47
2018-05-04T16:31:35.399Z,12.77
2018-05-04T16:34:02.644Z,13.33
2018-05-04T16:36:29.875Z,12.37
2018-05-04T16:38:57.290Z,12.20
2018-05-04T16:41:24.509Z,12.37
2018-05-04T16:43:51.731Z,12.87
2018-05-04T16:46:24.469Z,12.70
2018-05-04T16:48:57.159Z,11.73
2018-05-04T16:51:25.196Z,11.97
2018-05-04T16:53:52.882Z,10.87
2018-05-04T16:56:20.088Z,12.00
2018-05-04T16:58:47.309Z,13.10
2018-05-04T17:01:14.719Z,11.90
2018-05-04T17:03:41.696Z,12.40
2018-05-04T17:06:08.686Z,12.13
2018-05-04T17:08:35.675Z,13.03
2018-05-04T17:11:02.873Z,11.60
2018-05-04T17:13:29.862Z,13.70
2018-05-04T17:15:56.860Z,13.60
2018-05-04T17:18:24.042Z,13.53
2018-05-04T17:20:51.014Z,12.17
2018-05-04T17:23:18.216Z,13.50
2018-05-04T17:25:45.184Z,12.83
2018-05-04T17:28:12.468Z,13.40
2018-05-04T17:30:39.688Z,12.67
2018-05-04T17:33:06.924Z,12.50
2018-05-04T17:35:34.160Z,13.10
2018-05-04T17:38:01.349Z,12.33
2018-05-04T17:40:28.628Z,13.37
2018-05-04T17:42:55.970Z,13.10
2018-05-04T17:45:22.971Z,13.17
2018-05-04T17:47:50.198Z,12.67
2018-05-04T17:50:17.425Z,13.50
2018-05-04T17:52:44.635Z,13.70
2018-05-04T17:55:11.889Z,12.97
2018-05-04T17:57:39.258Z,12.67
2018-05-04T18:00:06.450Z,13.17
2018-05-04T18:02:33.661Z,13.60
2018-05-04T18:05:00.903Z,14.03
2018-05-04T18:07:28.113Z,12.80
2018-05-04T18:09:55.085Z,13.80
2018-05-04T18:12:22.431Z,13.70
2018-05-04T18:14:49.643Z,15.17
2018-05-04T18:17:16.838Z,13.00
2018-05-04T18:19:44.267Z,14.63
2018-05-04T18:22:11.458Z,13.70
2018-05-04T18:24:38.662Z,15.67
2018-05-04T18:27:05.856Z,15.20
2018-05-04T18:29:33.059Z,14.37
2018-05-04T18:32:00.270Z,14.93
2018-05-04T18:34:27.475Z,14.53
2018-05-04T18:36:54.769Z,16.10
2018-05-04T18:39:21.969Z,15.03
2018-05-04T18:41:49.190Z,14.50
2018-05-04T18:44:16.382Z,13.90
2018-05-04T18:46:43.577Z,15.20
2018-05-04T18:49:10.806Z,15.30
2018-05-04T18:51:38.057Z,16.30
2018-05-04T18:54:05.294Z,14.10
2018-05-04T18:56:32.526Z,16.27
2018-05-04T18:58:59.739Z,14.90
2018-05-04T19:01:26.939Z,16.00
2018-05-04T19:03:54.148Z,15.20
2018-05-04T19:06:21.349Z,14.63
2018-05-04T19:08:48.555Z,15.17
2018-05-04T19:11:15.774Z,15.67
2018-05-04T19:13:42.978Z,16.80
2018-05-04T19:16:10.213Z,14.77
2018-05-04T19:18:37.431Z,17.33
2018-05-04T19:21:04.671Z,16.00
2018-05-04T19:23:31.914Z,16.13
2018-05-04T19:25:59.134Z,16.53
2018-05-04T19:28:26.344Z,17.20
2018-05-04T19:30:53.569Z,15.13
2018-05-04T19:33:22.468Z,16.27
2018-05-04T19:35:49.665Z,16.73
2018-05-04T19:38:16.890Z,17.10
2018-05-04T19:40:44.115Z,16.23
2018-05-04T19:43:11.340Z,15.10
2018-05-04T19:45:38.593Z,16.03
2018-05-04T19:48:05.574Z,16.27
2018-05-04T19:50:32.795Z,16.30
2018-05-04T19:53:00.046Z,17.17
2018-05-04T19:55:27.255Z,17.77
2018-05-04T19:57:54.464Z,16.90
2018-05-04T20:00:21.815Z,17.53
2018-05-04T20:02:49.060Z,17.37
2018-05-04T20:05:16.283Z,17.87
2018-05-04T20:07:43.642Z,18.27
2018-05-04T20:10:10.877Z,17.43
2018-05-04T20:12:38.083Z,18.57
2018-05-04T20:15:05.514Z,18.50
2018-05-04T20:17:32.725Z,18.10
2018-05-04T20:19:59.971Z,17.90
2018-05-04T20:22:27.183Z,18.40
2018-05-04T20:24:54.419Z,17.47
2018-05-04T20:27:21.410Z,17.83
2018-05-04T20:29:48.656Z,17.73
2018-05-04T20:32:15.893Z,17.33
2018-05-04T20:34:43.102Z,18.67
2018-05-04T20:37:10.332Z,17.73
2018-05-04T20:39:37.316Z,18.03
2018-05-04T20:42:04.604Z,17.80
2018-05-04T20:44:31.819Z,18.50
2018-05-04T20:46:59.025Z,18.20
2018-05-04T20:49:26.246Z,20.10
2018-05-04T20:51:53.500Z,18.30
2018-05-04T20:54:20.733Z,19.07
2018-05-04T20:56:47.935Z,18.63
2018-05-04T20:59:15.160Z,18.67
2018-05-04T21:01:42.373Z,17.90
2018-05-04T21:04:09.595Z,17.57
2018-05-04T21:06:36.808Z,17.13
2018-05-04T21:09:03.595Z,18.83
2018-05-04T21:11:30.829Z,17.90
2018-05-04T21:13:58.105Z,18.53
2018-05-04T21:16:25.230Z,18.53
2018-05-04T21:18:52.437Z,18.30
2018-05-04T21:21:19.643Z,18.57
2018-05-04T21:23:46.836Z,17.90
2018-05-04T21:26:14.053Z,18.50
2018-05-04T21:28:41.049Z,18.73
2018-05-04T21:31:08.259Z,19.57
2018-05-04T21:33:35.483Z,18.87
2018-05-04T21:36:02.697Z,19.17
2018-05-04T21:38:29.943Z,19.47
2018-05-04T21:40:57.298Z,19.80
2018-05-04T21:43:24.530Z,18.90
2018-05-04T21:45:51.727Z,19.73
2018-05-04T21:48:18.945Z,20.00
2018-05-04T21:50:45.931Z,19.13
2018-05-04T21:53:13.136Z,19.33
2018-05-04T21:55:40.119Z,20.17
2018-05-04T21:58:07.317Z,21.70
2018-05-04T22:00:34.561Z,22.20
2018-05-04T22:03:01.805Z,20.53
2018-05-04T22:05:29.170Z,19.13
2018-05-04T22:07:56.149Z,20.03
2018-05-04T22:10:23.347Z,18.13
2018-05-04T22:12:50.585Z,20.53
2018-05-04T22:15:17.782Z,20.60
2018-05-04T22:17:44.756Z,20.70
2018-05-04T22:20:11.958Z,21.33
2018-05-04T22:22:39.156Z,20.47
2018-05-04T22:25:06.578Z,21.73
2018-05-04T22:27:34.000Z,20.27
2018-05-04T22:30:01.198Z,23.43
2018-05-04T22:32:28.423Z,21.50
2018-05-04T22:34:55.622Z,22.10
2018-05-04T22:37:22.828Z,23.30
2018-05-04T22:39:50.019Z,20.07
2018-05-04T22:42:17.234Z,23.70
2018-05-04T22:44:44.483Z,22.13
2018-05-04T22:47:11.683Z,21.37
2018-05-04T22:49:38.902Z,22.50
2018-05-04T22:52:06.096Z,20.23
2018-05-04T22:54:33.304Z,19.87
2018-05-04T22:57:00.517Z,21.57
2018-05-04T22:59:27.739Z,22.23
2018-05-04T23:01:54.984Z,22.53
2018-05-04T23:04:22.193Z,21.50
2018-05-04T23:06:49.163Z,22.67
2018-05-04T23:09:16.365Z,22.67
2018-05-04T23:11:43.570Z,22.37
2018-05-04T23:14:10.759Z,22.27
2018-05-04T23:16:37.997Z,23.13
2018-05-04T23:19:05.205Z,23.13
2018-05-04T23:21:32.434Z,22.60
2018-05-04T23:23:59.638Z,22.57
2018-05-04T23:26:26.849Z,21.07
2018-05-04T23:28:54.061Z,22.67
2018-05-04T23:31:21.259Z,22.57
2018-05-04T23:33:48.466Z,22.87
2018-05-04T23:36:15.661Z,21.60
2018-05-04T23:38:42.871Z,23.50
2018-05-04T23:41:10.072Z,21.07
2018-05-04T23:43:37.285Z,20.40
2018-05-04T23:46:04.501Z,20.70
2018-05-04T23:48:31.691Z,20.00
2018-05-04T23:50:58.915Z,19.73
2018-05-04T23:53:26.121Z,18.53
2018-05-04T23:55:53.340Z,19.37
2018-05-04T23:58:20.294Z,17.40
